METAR AND TAF INFORMATION
METAR FOR LIMZ
ADDS - METARS form results

(1334 UTC 27 February 2020)
Data provider http://aviationweather.gov/metar/data/
 
METAR text: LIMZ 271250Z 01005KT 330V060 CAVOK 10/M07 Q1006
Conditions at: LIMZ (LEVALDIGI , IT) observed 1250 UTC 27 February 2020
Temperature: 10.0°C (50°F)
Dewpoint: -7.0°C (19°F) [RH = 29%]
Pressure (altimeter): 29.70 inches Hg (1006.0 mb)
Winds: from the N (10 degrees) at 6 MPH (5 knots; 2.6 m/s)
Visibility: 6 or more miles (10+ km)
Ceiling: ceiling and visibility are OK
Clouds: unknown
Weather: no significant weather observed at this time

Forecast for: LIMZ (LEVALDIGI , IT)
Text: TAF LIMZ 271100Z 2712/2812 VRB05KT CAVOK
Forecast period: 1200 UTC 27 February 2020 to 1200 UTC 28 February 2020
Forecast type: FROM: standard forecast or significant change
Winds: variable direction winds at 6 MPH (5 knots; 2.6 m/s)
Visibility: 6 or more miles 10+ km)
Ceiling: unknown
Clouds: missing
Weather: NSW  (no significant weather)

 AIRPORT MAP

 RUNWAY INFORMATION
Runway 03 Runway length 6903 ft Runway width 148 ft
Runway elevation 1267 ft Runway displaced threshold 0 ft Runway heading 32
Runway 21 Runway length 6903 ft Runway width 148 ft
Runway elevation 1217 ft Runway displaced threshold 0 ft Runway heading 212

 AIRPORT FREQUENCIES
Type AFIS Name CUNEO INFO Frequency 119.55 MHZ

 AIRPORT NEAR NAVIGATION AIDS
Type NDB Name Levaldigi Frequency 371 KHZ



Powered by Virtual Airlines Manager [v2.6.2]